FNGI

Ngjiva Pereira Airport

Ngiva, Angola
METAR FNGI 230600Z 24004KT 9999 FEW016 22/15 Q1012
Observed Flight Rules
Feb-23 @ 06:00 UTC (2 hours ago) Visual Flight Rules
Wind Visibility Clouds
240° at 4 knots 10,000+ meters
  • Few at 1,600' AGL
Temperatures Readings
Current 22°C / 72°F
Dewpoint 15°C / 59°F
Humidity 65%
Altimeter 29.88" Hg
Pressure 1012 hPa
Elevation 1087
METAR FNGI 230600Z 24004KT 9999 FEW016 22/15 Q1012
Observed Flight Rules
Feb-23 @ 06:00 UTC
(2 hours ago)
VFR
Wind Visibility
240° at 4 knots 10,000+ meters
Clouds
  • Few at 1,600' AGL
Temperature Dewpoint
22°C / 72°F 15°C / 59°F
Humidity Altimeter Pressure
65% 29.88" Hg 1012 hPa